createdAt,value
2018-12-05T00:00:21.852Z,1.47
2018-12-05T00:02:49.247Z,1.85
2018-12-05T00:05:16.579Z,1.80
2018-12-05T00:07:44.936Z,2.17
2018-12-05T00:10:12.394Z,1.45
2018-12-05T00:12:39.711Z,1.70
2018-12-05T00:15:07.587Z,1.20
2018-12-05T00:17:35.391Z,1.98
2018-12-05T00:20:03.120Z,1.60
2018-12-05T00:22:30.539Z,1.32
2018-12-05T00:24:57.847Z,1.50
2018-12-05T00:27:25.151Z,2.27
2018-12-05T00:29:52.439Z,1.92
2018-12-05T00:32:19.755Z,1.60
2018-12-05T00:34:47.022Z,1.90
2018-12-05T00:37:14.394Z,1.50
2018-12-05T00:39:41.663Z,2.30
2018-12-05T00:42:09.070Z,1.40
2018-12-05T00:44:36.450Z,2.10
2018-12-05T00:47:03.764Z,1.97
2018-12-05T00:49:31.062Z,1.17
2018-12-05T00:51:58.330Z,1.80
2018-12-05T00:54:25.590Z,2.40
2018-12-05T00:56:52.910Z,1.70
2018-12-05T00:59:20.198Z,1.67
2018-12-05T01:01:47.503Z,1.47
2018-12-05T01:04:14.779Z,2.07
2018-12-05T01:06:42.319Z,1.33
2018-12-05T01:09:11.951Z,1.50
2018-12-05T01:11:40.248Z,1.20
2018-12-05T01:14:07.557Z,1.30
2018-12-05T01:16:51.907Z,1.67
2018-12-05T01:19:19.187Z,1.30
2018-12-05T01:21:46.458Z,1.00
2018-12-05T01:24:13.772Z,1.37
2018-12-05T01:26:41.103Z,1.40
2018-12-05T01:29:08.522Z,1.35
2018-12-05T01:31:35.819Z,1.52
2018-12-05T01:34:03.163Z,1.50
2018-12-05T01:36:30.446Z,1.80
2018-12-05T01:38:57.742Z,1.90
2018-12-05T01:41:25.046Z,1.70
2018-12-05T01:43:52.662Z,1.80
2018-12-05T01:46:19.952Z,1.85
2018-12-05T01:48:47.230Z,1.15
2018-12-05T01:51:14.540Z,2.30
2018-12-05T01:53:41.822Z,2.72
2018-12-05T01:56:09.107Z,1.77
2018-12-05T01:58:37.459Z,2.37
2018-12-05T02:01:04.770Z,1.80
2018-12-05T02:03:32.074Z,2.77
2018-12-05T02:05:59.378Z,2.00
2018-12-05T02:08:26.715Z,2.20
2018-12-05T02:10:54.002Z,1.90
2018-12-05T02:13:21.299Z,2.72
2018-12-05T02:15:48.592Z,2.17
2018-12-05T02:18:15.886Z,2.37
2018-12-05T02:20:43.426Z,2.72
2018-12-05T02:23:10.718Z,2.30
2018-12-05T02:25:38.498Z,2.58
2018-12-05T02:28:06.843Z,3.05
2018-12-05T02:30:34.146Z,2.95
2018-12-05T02:33:02.407Z,3.83
2018-12-05T02:35:29.722Z,2.87
2018-12-05T02:37:57.034Z,3.30
2018-12-05T02:40:24.306Z,4.35
2018-12-05T02:42:51.594Z,4.03
2018-12-05T02:45:18.900Z,3.52
2018-12-05T02:47:46.284Z,3.90
2018-12-05T02:50:13.682Z,3.35
2018-12-05T02:52:40.970Z,4.05
2018-12-05T02:55:08.274Z,3.10
2018-12-05T02:57:35.574Z,3.80
2018-12-05T03:00:04.642Z,3.83
2018-12-05T03:02:33.968Z,3.35
2018-12-05T03:05:01.303Z,3.70
2018-12-05T03:07:28.610Z,4.40
2018-12-05T03:09:55.975Z,4.85
2018-12-05T03:12:23.275Z,3.70
2018-12-05T03:14:50.554Z,3.35
2018-12-05T03:17:17.840Z,3.45
2018-12-05T03:19:45.114Z,5.67
2018-12-05T03:22:12.543Z,4.90
2018-12-05T03:24:39.824Z,4.25
2018-12-05T03:27:07.118Z,4.30
2018-12-05T03:29:34.414Z,4.78
2018-12-05T03:32:03.788Z,4.22
2018-12-05T03:34:31.171Z,7.35
2018-12-05T03:36:58.514Z,4.45
2018-12-05T03:39:25.859Z,4.65
2018-12-05T03:41:53.155Z,5.05
2018-12-05T03:44:20.446Z,5.55
2018-12-05T03:46:47.755Z,5.08
2018-12-05T03:49:15.138Z,4.70
2018-12-05T03:51:42.434Z,5.42
2018-12-05T03:54:09.702Z,5.92
2018-12-05T03:56:36.994Z,5.62
2018-12-05T03:59:04.408Z,5.50
2018-12-05T04:01:31.721Z,5.65
2018-12-05T04:03:59.117Z,6.35
2018-12-05T04:06:26.442Z,6.03
2018-12-05T04:08:53.808Z,6.53
2018-12-05T04:11:21.139Z,6.40
2018-12-05T04:13:48.664Z,7.37
2018-12-05T04:16:16.015Z,6.28
2018-12-05T04:18:43.328Z,5.83
2018-12-05T04:21:10.651Z,6.75
2018-12-05T04:23:37.987Z,6.70
2018-12-05T04:26:05.311Z,6.03
2018-12-05T04:28:32.616Z,6.20
2018-12-05T04:30:59.947Z,6.92
2018-12-05T04:33:29.317Z,7.00
2018-12-05T04:35:56.627Z,6.55
2018-12-05T04:38:23.976Z,7.70
2018-12-05T04:40:51.342Z,7.25
2018-12-05T04:43:18.664Z,6.85
2018-12-05T04:45:46.018Z,6.40
2018-12-05T04:48:13.311Z,8.95
2018-12-05T04:50:40.718Z,7.10
2018-12-05T04:53:08.014Z,7.67
2018-12-05T04:55:36.423Z,7.28
2018-12-05T04:58:03.748Z,6.92
2018-12-05T05:00:31.791Z,6.83
2018-12-05T05:02:59.206Z,6.95
2018-12-05T05:05:26.735Z,8.25
2018-12-05T05:07:54.037Z,8.48
2018-12-05T05:10:21.339Z,8.10
2018-12-05T05:12:48.663Z,9.00
2018-12-05T05:15:17.006Z,8.43
2018-12-05T05:17:45.366Z,7.03
2018-12-05T05:20:12.787Z,8.98
2018-12-05T05:22:40.113Z,9.30
2018-12-05T05:25:07.654Z,9.38
2018-12-05T05:27:34.970Z,8.53
2018-12-05T05:30:02.815Z,8.43
2018-12-05T05:32:30.258Z,8.83
2018-12-05T05:34:57.543Z,8.10
2018-12-05T05:37:24.849Z,7.67
2018-12-05T05:39:53.414Z,8.80
2018-12-05T05:42:20.730Z,9.78
2018-12-05T05:44:48.059Z,9.05
2018-12-05T05:47:15.374Z,10.90
2018-12-05T05:49:42.702Z,10.43
2018-12-05T05:52:10.047Z,10.30
2018-12-05T05:54:37.333Z,9.93
2018-12-05T05:57:04.770Z,9.28
2018-12-05T05:59:32.041Z,8.73
2018-12-05T06:01:59.363Z,9.15
2018-12-05T06:04:26.690Z,9.15
2018-12-05T06:06:54.070Z,10.60
2018-12-05T06:09:21.375Z,10.43
2018-12-05T06:11:48.719Z,14.38
2018-12-05T06:14:16.031Z,13.03
2018-12-05T06:16:43.351Z,14.00
2018-12-05T06:19:10.669Z,12.75
2018-12-05T06:21:38.054Z,15.60
2018-12-05T06:24:05.523Z,15.55
2018-12-05T06:26:32.844Z,14.23
2018-12-05T06:29:00.175Z,13.65
2018-12-05T06:31:27.499Z,11.08
2018-12-05T06:33:54.956Z,11.15
2018-12-05T06:36:22.303Z,9.83
2018-12-05T06:38:49.617Z,9.38
2018-12-05T06:41:16.915Z,10.50
2018-12-05T06:43:44.226Z,9.80
2018-12-05T06:46:11.547Z,10.85
2018-12-05T06:48:38.884Z,9.53
2018-12-05T06:51:06.299Z,10.30
2018-12-05T06:53:33.615Z,9.65
2018-12-05T06:56:00.938Z,11.20
2018-12-05T06:58:28.250Z,10.40
2018-12-05T07:00:55.559Z,12.13
2018-12-05T07:03:22.911Z,10.58
2018-12-05T07:05:50.236Z,11.68
2018-12-05T07:08:17.589Z,9.93
2018-12-05T07:10:44.915Z,10.68
2018-12-05T07:13:12.258Z,10.53
2018-12-05T07:15:39.679Z,10.75
2018-12-05T07:18:07.067Z,10.32
2018-12-05T07:20:34.374Z,11.40
2018-12-05T07:23:01.978Z,11.40
2018-12-05T07:25:29.319Z,11.65
2018-12-05T07:27:56.618Z,11.12
2018-12-05T07:30:29.418Z,11.80
2018-12-05T07:32:53.310Z,9.60
2018-12-05T07:35:20.647Z,10.58
2018-12-05T07:37:47.955Z,9.90
2018-12-05T07:40:16.487Z,10.43
2018-12-05T07:42:44.127Z,9.78
2018-12-05T07:45:11.451Z,10.38
2018-12-05T07:47:38.746Z,10.18
2018-12-05T07:50:06.251Z,9.30
2018-12-05T07:52:33.572Z,12.88
2018-12-05T07:55:00.895Z,10.18
2018-12-05T07:57:28.215Z,10.58
2018-12-05T07:59:55.687Z,11.43
2018-12-05T08:02:23.009Z,13.68
2018-12-05T08:04:50.474Z,10.10
2018-12-05T08:07:17.832Z,9.90
2018-12-05T08:09:45.171Z,10.20
2018-12-05T08:12:12.489Z,10.40
2018-12-05T08:14:39.824Z,9.15
2018-12-05T08:17:07.118Z,9.15
2018-12-05T08:19:34.483Z,10.05
2018-12-05T08:22:01.967Z,9.70
2018-12-05T08:24:29.331Z,10.43
2018-12-05T08:26:56.816Z,8.98
2018-12-05T08:29:24.159Z,9.80
2018-12-05T08:31:51.510Z,9.63
2018-12-05T08:34:18.842Z,10.18
2018-12-05T08:36:46.187Z,9.95
2018-12-05T08:39:13.650Z,8.78
2018-12-05T08:41:41.104Z,9.23
2018-12-05T08:44:08.535Z,9.28
2018-12-05T08:46:35.983Z,8.35
2018-12-05T08:49:03.449Z,9.30
2018-12-05T08:51:30.962Z,8.80
2018-12-05T08:53:58.324Z,9.63
2018-12-05T08:56:25.668Z,8.60
2018-12-05T08:58:53.087Z,8.23
2018-12-05T09:01:20.551Z,8.13
2018-12-05T09:03:48.067Z,8.23
2018-12-05T09:06:15.631Z,9.20
2018-12-05T09:08:43.100Z,9.80
2018-12-05T09:11:10.439Z,9.30
2018-12-05T09:13:37.911Z,8.85
2018-12-05T09:16:05.250Z,12.35
2018-12-05T09:18:32.603Z,10.25
2018-12-05T09:20:59.939Z,9.68
2018-12-05T09:23:27.242Z,9.65
2018-12-05T09:25:54.731Z,10.15
2018-12-05T09:28:22.167Z,10.55
2018-12-05T09:30:49.496Z,11.10
2018-12-05T09:33:17.911Z,11.15
2018-12-05T09:35:45.239Z,9.63
2018-12-05T09:38:12.579Z,10.23
2018-12-05T09:40:39.920Z,9.70
2018-12-05T09:43:07.261Z,10.10
2018-12-05T09:45:34.571Z,10.03
2018-12-05T09:48:03.195Z,10.10
2018-12-05T09:50:30.508Z,10.30
2018-12-05T09:52:57.951Z,9.30
2018-12-05T09:55:25.375Z,10.80
2018-12-05T09:57:52.920Z,10.98
2018-12-05T10:00:20.251Z,10.88
2018-12-05T10:02:47.812Z,11.03
2018-12-05T10:05:15.131Z,11.33
2018-12-05T10:07:42.474Z,11.33
2018-12-05T10:10:09.819Z,11.50
2018-12-05T10:12:37.150Z,11.00
2018-12-05T10:15:05.641Z,11.07
2018-12-05T10:17:32.994Z,10.87
2018-12-05T10:20:00.418Z,13.03
2018-12-05T10:22:27.763Z,12.33
2018-12-05T10:24:55.082Z,12.03
2018-12-05T10:27:22.591Z,11.40
2018-12-05T10:29:49.927Z,12.77
2018-12-05T10:32:17.255Z,14.10
2018-12-05T10:34:44.576Z,14.00
2018-12-05T10:37:12.023Z,13.90
2018-12-05T10:39:39.355Z,13.90
2018-12-05T10:42:06.731Z,15.53
2018-12-05T10:44:34.163Z,14.00
2018-12-05T10:47:01.621Z,13.70
2018-12-05T10:49:29.099Z,13.40
2018-12-05T10:51:56.542Z,15.50
2018-12-05T10:54:23.871Z,15.47
2018-12-05T10:56:51.327Z,14.67
2018-12-05T10:59:18.661Z,14.77
2018-12-05T11:01:51.659Z,16.53
2018-12-05T11:04:24.667Z,15.17
2018-12-05T11:06:57.670Z,16.70
2018-12-05T11:09:30.903Z,16.50
2018-12-05T11:12:03.899Z,17.73
2018-12-05T11:14:37.063Z,15.73
2018-12-05T11:17:10.167Z,15.23
2018-12-05T11:19:43.199Z,15.90
2018-12-05T11:23:14.683Z,15.50
2018-12-05T11:25:43.163Z,14.30
2018-12-05T11:28:10.496Z,14.33
2018-12-05T11:30:37.815Z,15.30
2018-12-05T11:33:05.162Z,15.30
2018-12-05T11:35:32.458Z,14.60
2018-12-05T11:37:59.761Z,14.20
2018-12-05T11:40:27.239Z,14.83
2018-12-05T11:42:54.675Z,15.33
2018-12-05T11:45:21.986Z,16.33
2018-12-05T11:47:49.306Z,15.70
2018-12-05T11:50:16.610Z,18.00
2018-12-05T11:52:43.923Z,16.50
2018-12-05T11:55:11.319Z,15.83
2018-12-05T11:57:38.627Z,15.73
2018-12-05T12:00:07.063Z,16.13
2018-12-05T12:02:34.379Z,15.00
2018-12-05T12:05:04.158Z,20.70
2018-12-05T12:07:31.494Z,26.17
2018-12-05T12:09:59.110Z,22.77
2018-12-05T12:12:32.192Z,21.83
2018-12-05T12:14:59.622Z,19.77
2018-12-05T12:17:27.086Z,20.67
2018-12-05T12:19:54.384Z,19.20
2018-12-05T12:22:21.703Z,20.90
2018-12-05T12:24:49.016Z,17.40
2018-12-05T12:27:16.568Z,17.23
2018-12-05T12:29:44.003Z,16.90
2018-12-05T12:32:11.310Z,16.63
2018-12-05T12:34:38.639Z,15.80
2018-12-05T12:37:05.950Z,16.03
2018-12-05T12:39:33.255Z,14.80
2018-12-05T12:42:00.548Z,13.20
2018-12-05T12:44:27.899Z,14.17
2018-12-05T12:46:55.204Z,16.07
2018-12-05T12:49:22.524Z,15.60
2018-12-05T12:51:49.827Z,13.97
2018-12-05T12:54:17.131Z,14.63
2018-12-05T12:56:44.435Z,12.50
2018-12-05T12:59:11.756Z,13.20
2018-12-05T13:01:39.058Z,13.77
2018-12-05T13:04:06.394Z,15.37
2018-12-05T13:06:33.794Z,15.72
2018-12-05T13:09:01.906Z,15.80
2018-12-05T13:11:31.591Z,16.17
2018-12-05T13:13:58.907Z,13.70
2018-12-05T13:16:26.212Z,14.70
2018-12-05T13:18:53.535Z,14.57
2018-12-05T13:21:21.847Z,15.77
2018-12-05T13:23:49.175Z,16.33
2018-12-05T13:26:16.475Z,15.23
2018-12-05T13:28:43.825Z,15.17
2018-12-05T13:31:12.068Z,15.23
2018-12-05T13:33:39.342Z,16.60
2018-12-05T13:36:06.806Z,16.47
2018-12-05T13:38:34.102Z,17.30
2018-12-05T13:41:01.482Z,17.23
2018-12-05T13:43:30.103Z,17.03
2018-12-05T13:45:57.522Z,17.13
2018-12-05T13:48:25.047Z,19.67
2018-12-05T13:50:52.472Z,19.87
2018-12-05T13:53:19.831Z,20.63
2018-12-05T13:55:48.250Z,22.60
2018-12-05T13:58:15.847Z,19.57
2018-12-05T14:00:43.311Z,19.00
2018-12-05T14:03:10.616Z,20.80
2018-12-05T14:05:39.263Z,21.33
2018-12-05T14:08:06.570Z,19.83
2018-12-05T14:10:33.891Z,20.03
2018-12-05T14:13:01.263Z,20.03
2018-12-05T14:15:28.644Z,21.67
2018-12-05T14:18:01.363Z,22.30
2018-12-05T14:20:25.459Z,20.40
2018-12-05T14:22:52.771Z,19.00
2018-12-05T14:25:20.082Z,20.63
2018-12-05T14:27:47.708Z,18.67
2018-12-05T14:30:15.077Z,18.80
2018-12-05T14:32:42.558Z,19.90
2018-12-05T14:35:09.944Z,20.40
2018-12-05T14:37:37.380Z,18.73
2018-12-05T14:40:05.285Z,18.97
2018-12-05T14:42:33.783Z,18.63
2018-12-05T14:45:01.133Z,18.17
2018-12-05T14:47:28.418Z,21.52
2018-12-05T14:49:55.941Z,19.90
2018-12-05T14:52:23.236Z,18.00
2018-12-05T14:54:50.523Z,19.95
2018-12-05T14:57:18.001Z,18.97
2018-12-05T14:59:45.312Z,18.02
2018-12-05T15:02:12.622Z,18.97
2018-12-05T15:04:40.167Z,17.20
2018-12-05T15:07:07.471Z,18.50
2018-12-05T15:09:34.819Z,18.90
2018-12-05T15:12:02.188Z,18.83
2018-12-05T15:14:29.499Z,18.45
2018-12-05T15:16:56.847Z,18.37
2018-12-05T15:19:24.251Z,19.73
2018-12-05T15:21:51.655Z,17.57
2018-12-05T15:24:18.980Z,18.65
2018-12-05T15:26:46.442Z,19.65
2018-12-05T15:29:17.239Z,18.70
2018-12-05T15:31:44.675Z,19.95
2018-12-05T15:34:12.140Z,18.00
2018-12-05T15:36:40.591Z,17.67
2018-12-05T15:39:08.055Z,17.57
2018-12-05T15:41:35.659Z,16.60
2018-12-05T15:44:02.979Z,17.40
2018-12-05T15:46:30.295Z,18.30
2018-12-05T15:48:57.740Z,16.45
2018-12-05T15:51:25.063Z,17.05
2018-12-05T15:53:52.403Z,16.00
2018-12-05T15:56:19.743Z,16.60
2018-12-05T15:58:47.061Z,14.90
2018-12-05T16:01:14.382Z,15.50
2018-12-05T16:03:43.375Z,15.58
2018-12-05T16:06:11.028Z,16.80
2018-12-05T16:08:38.335Z,15.90
2018-12-05T16:11:05.980Z,15.95
2018-12-05T16:13:33.287Z,15.53
2018-12-05T16:16:00.588Z,14.40
2018-12-05T16:18:27.923Z,13.38
2018-12-05T16:20:55.275Z,14.85
2018-12-05T16:23:22.754Z,13.60
2018-12-05T16:25:50.072Z,14.03
2018-12-05T16:28:17.514Z,13.65
2018-12-05T16:30:44.819Z,12.25
2018-12-05T16:33:12.141Z,13.20
2018-12-05T16:35:39.445Z,14.68
2018-12-05T16:38:06.931Z,14.68
2018-12-05T16:40:34.263Z,14.00
2018-12-05T16:43:01.595Z,12.73
2018-12-05T16:48:21.803Z,13.65
2018-12-05T16:50:49.151Z,13.25
2018-12-05T16:53:16.515Z,13.10
2018-12-05T16:55:43.823Z,11.68
2018-12-05T16:58:11.271Z,12.70
2018-12-05T17:00:38.602Z,12.75
2018-12-05T17:03:05.967Z,14.70
2018-12-05T17:05:33.307Z,13.50
2018-12-05T17:08:00.646Z,12.53
2018-12-05T17:10:27.972Z,12.40
2018-12-05T17:12:55.539Z,12.13
2018-12-05T17:15:22.896Z,11.40
2018-12-05T17:17:51.280Z,11.78
2018-12-05T17:20:18.642Z,11.38
2018-12-05T17:22:46.003Z,12.70
2018-12-05T17:25:13.347Z,12.60
2018-12-05T17:27:40.658Z,10.48
2018-12-05T17:30:08.238Z,11.40
2018-12-05T17:32:35.595Z,9.43
2018-12-05T17:35:03.720Z,11.20
2018-12-05T17:37:31.072Z,9.78
2018-12-05T17:39:58.408Z,10.98
2018-12-05T17:42:27.075Z,9.73
2018-12-05T17:44:54.391Z,9.83
2018-12-05T17:47:21.727Z,11.43
2018-12-05T17:49:49.095Z,10.78
2018-12-05T17:52:16.415Z,11.93
2018-12-05T17:55:00.698Z,9.88
2018-12-05T17:57:28.979Z,8.90
2018-12-05T17:59:56.299Z,8.88
2018-12-05T18:02:23.592Z,9.30
2018-12-05T18:04:51.947Z,9.15
2018-12-05T18:07:19.252Z,9.43
2018-12-05T18:09:46.554Z,9.95
2018-12-05T18:12:13.868Z,10.38
2018-12-05T18:14:42.388Z,8.38
2018-12-05T18:17:09.734Z,8.43
2018-12-05T18:19:37.128Z,9.08
2018-12-05T18:22:04.469Z,8.70
2018-12-05T18:24:31.827Z,8.95
2018-12-05T18:26:59.272Z,8.70
2018-12-05T18:29:26.659Z,9.28
2018-12-05T18:31:53.995Z,8.05
2018-12-05T18:34:21.351Z,7.92
2018-12-05T18:36:48.668Z,9.98
2018-12-05T18:39:16.019Z,6.83
2018-12-05T18:41:43.364Z,8.30
2018-12-05T18:44:10.751Z,7.50
2018-12-05T18:46:38.091Z,6.17
2018-12-05T18:49:05.462Z,6.42
2018-12-05T18:51:32.784Z,6.65
2018-12-05T18:54:00.137Z,6.25
2018-12-05T18:56:27.490Z,6.60
2018-12-05T18:58:54.849Z,6.55
2018-12-05T19:01:22.199Z,5.42
2018-12-05T19:03:49.633Z,5.53
2018-12-05T19:06:16.953Z,5.67
2018-12-05T19:08:44.299Z,5.37
2018-12-05T19:11:11.663Z,6.03
2018-12-05T19:13:45.061Z,5.87
2018-12-05T19:16:12.432Z,4.92
2018-12-05T19:18:39.938Z,5.42
2018-12-05T19:21:07.277Z,6.30
2018-12-05T19:23:34.598Z,4.80
2018-12-05T19:26:01.943Z,5.25
2018-12-05T19:28:29.439Z,5.65
2018-12-05T19:30:56.780Z,6.03
2018-12-05T19:33:24.091Z,5.90
2018-12-05T19:35:52.490Z,5.55
2018-12-05T19:38:20.619Z,6.03
2018-12-05T19:40:48.067Z,5.35
2018-12-05T19:43:15.383Z,6.50
2018-12-05T19:45:42.931Z,4.58
2018-12-05T19:48:10.270Z,4.53
2018-12-05T19:50:37.588Z,3.85
2018-12-05T19:53:04.906Z,4.45
2018-12-05T19:55:32.204Z,4.90
2018-12-05T19:58:00.550Z,3.95
2018-12-05T20:00:28.190Z,4.80
2018-12-05T20:02:57.564Z,4.58
2018-12-05T20:08:55.846Z,3.70
2018-12-05T20:11:23.342Z,4.08
2018-12-05T20:13:50.639Z,3.65
2018-12-05T20:16:19.534Z,3.52
2018-12-05T20:18:46.859Z,5.03
2018-12-05T20:21:14.146Z,5.05
2018-12-05T20:23:41.447Z,4.65
2018-12-05T20:26:08.773Z,3.60
2018-12-05T20:28:36.097Z,4.28
2018-12-05T20:31:03.477Z,4.15
2018-12-05T20:33:30.816Z,4.00
2018-12-05T20:35:58.140Z,3.52
2018-12-05T20:38:25.499Z,3.65
2018-12-05T20:40:52.829Z,4.97
2018-12-05T20:43:20.159Z,3.67
2018-12-05T20:45:47.493Z,3.98
2018-12-05T20:48:14.898Z,3.55
2018-12-05T20:50:43.275Z,3.00
2018-12-05T20:53:10.612Z,3.58
2018-12-05T20:55:38.059Z,3.52
2018-12-05T20:58:05.567Z,3.83
2018-12-05T21:00:32.895Z,4.65
2018-12-05T21:03:00.247Z,3.40
2018-12-05T21:05:27.676Z,5.03
2018-12-05T21:07:55.339Z,4.05
2018-12-05T21:10:22.703Z,4.80
2018-12-05T21:12:50.006Z,3.30
2018-12-05T21:15:17.366Z,4.35
2018-12-05T21:17:44.801Z,3.67
2018-12-05T21:20:12.163Z,5.30
2018-12-05T21:22:46.925Z,3.45
2018-12-05T21:25:08.838Z,3.10
2018-12-05T21:27:36.179Z,3.92
2018-12-05T21:30:05.913Z,3.25
2018-12-05T21:32:33.229Z,3.62
2018-12-05T21:35:00.555Z,3.05
2018-12-05T21:37:27.863Z,3.60
2018-12-05T21:39:55.183Z,3.40
2018-12-05T21:42:22.623Z,3.60
2018-12-05T21:44:49.938Z,3.55
2018-12-05T21:47:17.230Z,3.33
2018-12-05T21:49:44.552Z,3.10
2018-12-05T21:52:11.891Z,4.72
2018-12-05T21:54:39.194Z,3.85
2018-12-05T21:57:06.635Z,4.78
2018-12-05T21:59:34.075Z,3.37
2018-12-05T22:02:01.483Z,3.60
2018-12-05T22:04:28.967Z,4.45
2018-12-05T22:06:56.368Z,3.80
2018-12-05T22:09:23.735Z,4.55
2018-12-05T22:11:51.108Z,3.80
2018-12-05T22:14:18.451Z,4.35
2018-12-05T22:16:45.781Z,3.95
2018-12-05T22:19:13.222Z,4.55
2018-12-05T22:21:40.547Z,4.40
2018-12-05T22:24:08.032Z,4.50
2018-12-05T22:26:35.459Z,4.65
2018-12-05T22:29:02.803Z,4.87
2018-12-05T22:31:30.123Z,5.10
2018-12-05T22:33:59.203Z,4.40
2018-12-05T22:36:26.603Z,4.10
2018-12-05T22:38:53.936Z,4.20
2018-12-05T22:41:21.291Z,5.70
2018-12-05T22:43:48.595Z,5.85
2018-12-05T22:46:18.246Z,5.00
2018-12-05T22:48:45.666Z,4.62
2018-12-05T22:51:12.972Z,4.65
2018-12-05T22:53:40.301Z,4.85
2018-12-05T22:56:07.840Z,5.60
2018-12-05T22:58:35.155Z,4.50
2018-12-05T23:01:03.313Z,5.55
2018-12-05T23:03:32.843Z,5.47
2018-12-05T23:06:00.166Z,6.08
2018-12-05T23:08:28.127Z,5.97
2018-12-05T23:10:55.504Z,5.65
2018-12-05T23:13:22.823Z,5.20
2018-12-05T23:15:50.147Z,5.33
2018-12-05T23:18:17.479Z,6.58
2018-12-05T23:20:44.843Z,5.15
2018-12-05T23:23:12.163Z,6.85
2018-12-05T23:25:39.503Z,5.80
2018-12-05T23:28:06.995Z,5.28
2018-12-05T23:30:34.304Z,5.73
2018-12-05T23:33:01.724Z,8.13
2018-12-05T23:35:29.271Z,5.55
2018-12-05T23:37:56.591Z,5.85
2018-12-05T23:40:23.918Z,6.33
2018-12-05T23:42:51.387Z,6.62
2018-12-05T23:45:18.881Z,6.10
2018-12-05T23:47:46.312Z,6.78
2018-12-05T23:50:13.654Z,5.97
2018-12-05T23:52:40.990Z,5.80
2018-12-05T23:55:08.366Z,6.78
2018-12-05T23:57:35.743Z,5.92
